sensor_id;sensor_type;location;lat;lon;timestamp;pressure;altitude;pressure_sealevel;temperature;humidity
36138;BME280;67787;50.074;21.904;2023-04-07T00:00:12;98804.12;;;0.28;77.75
36138;BME280;67787;50.074;21.904;2023-04-07T00:02:59;98802.38;;;0.28;77.66
36138;BME280;67787;50.074;21.904;2023-04-07T00:05:29;98797.14;;;0.28;77.34
36138;BME280;67787;50.074;21.904;2023-04-07T00:07:57;98801.27;;;0.30;78.02
36138;BME280;67787;50.074;21.904;2023-04-07T00:10:25;98803.59;;;0.28;77.92
36138;BME280;67787;50.074;21.904;2023-04-07T00:12:53;98809.68;;;0.28;77.96
36138;BME280;67787;50.074;21.904;2023-04-07T00:15:21;98804.47;;;0.28;78.11
36138;BME280;67787;50.074;21.904;2023-04-07T00:17:50;98806.40;;;0.28;77.83
36138;BME280;67787;50.074;21.904;2023-04-07T00:20:18;98806.20;;;0.29;78.01
36138;BME280;67787;50.074;21.904;2023-04-07T00:22:45;98805.47;;;0.29;77.88
36138;BME280;67787;50.074;21.904;2023-04-07T00:25:14;98807.58;;;0.29;78.22
36138;BME280;67787;50.074;21.904;2023-04-07T00:27:42;98802.36;;;0.28;78.19
36138;BME280;67787;50.074;21.904;2023-04-07T00:30:11;98802.71;;;0.28;77.71
36138;BME280;67787;50.074;21.904;2023-04-07T00:32:39;98803.37;;;0.29;77.56
36138;BME280;67787;50.074;21.904;2023-04-07T00:35:07;98803.33;;;0.31;77.59
36138;BME280;67787;50.074;21.904;2023-04-07T00:37:35;98800.85;;;0.32;77.69
36138;BME280;67787;50.074;21.904;2023-04-07T00:40:04;98791.29;;;0.31;77.85
36138;BME280;67787;50.074;21.904;2023-04-07T00:42:32;98790.75;;;0.32;77.37
36138;BME280;67787;50.074;21.904;2023-04-07T00:45:02;98783.63;;;0.31;77.76
36138;BME280;67787;50.074;21.904;2023-04-07T00:47:30;98768.96;;;0.31;77.30
36138;BME280;67787;50.074;21.904;2023-04-07T00:49:58;98766.33;;;0.32;77.47
36138;BME280;67787;50.074;21.904;2023-04-07T00:52:26;98766.70;;;0.31;77.78
36138;BME280;67787;50.074;21.904;2023-04-07T00:54:55;98768.07;;;0.32;78.03
36138;BME280;67787;50.074;21.904;2023-04-07T00:57:24;98774.55;;;0.31;78.15
36138;BME280;67787;50.074;21.904;2023-04-07T00:59:53;98774.91;;;0.31;77.75
36138;BME280;67787;50.074;21.904;2023-04-07T01:02:42;98769.98;;;0.32;77.76
36138;BME280;67787;50.074;21.904;2023-04-07T01:05:16;98768.98;;;0.31;78.06
36138;BME280;67787;50.074;21.904;2023-04-07T01:08:16;98769.46;;;0.32;77.81
36138;BME280;67787;50.074;21.904;2023-04-07T01:10:52;98777.85;;;0.31;77.82
36138;BME280;67787;50.074;21.904;2023-04-07T01:13:30;98768.23;;;0.32;77.78
36138;BME280;67787;50.074;21.904;2023-04-07T01:16:04;98755.63;;;0.33;77.76
36138;BME280;67787;50.074;21.904;2023-04-07T01:18:37;98751.08;;;0.34;78.18
36138;BME280;67787;50.074;21.904;2023-04-07T01:21:11;98761.19;;;0.34;77.91
36138;BME280;67787;50.074;21.904;2023-04-07T01:26:29;98772.44;;;0.36;77.85
36138;BME280;67787;50.074;21.904;2023-04-07T01:31:54;98782.16;;;0.37;78.27
36138;BME280;67787;50.074;21.904;2023-04-07T01:34:25;98774.31;;;0.38;78.10
36138;BME280;67787;50.074;21.904;2023-04-07T01:36:54;98760.54;;;0.37;78.42
36138;BME280;67787;50.074;21.904;2023-04-07T01:39:26;98760.70;;;0.38;78.64
36138;BME280;67787;50.074;21.904;2023-04-07T01:41:55;98749.57;;;0.37;78.29
36138;BME280;67787;50.074;21.904;2023-04-07T01:44:24;98745.52;;;0.38;77.95
36138;BME280;67787;50.074;21.904;2023-04-07T01:46:55;98750.11;;;0.36;78.55
36138;BME280;67787;50.074;21.904;2023-04-07T01:49:24;98764.05;;;0.37;78.77
36138;BME280;67787;50.074;21.904;2023-04-07T01:51:54;98743.63;;;0.37;78.53
36138;BME280;67787;50.074;21.904;2023-04-07T01:54:23;98733.14;;;0.38;78.14
36138;BME280;67787;50.074;21.904;2023-04-07T01:56:51;98751.08;;;0.38;78.08
36138;BME280;67787;50.074;21.904;2023-04-07T01:59:19;98763.27;;;0.39;78.22
36138;BME280;67787;50.074;21.904;2023-04-07T02:01:48;98761.21;;;0.38;78.60
36138;BME280;67787;50.074;21.904;2023-04-07T02:04:31;98757.16;;;0.39;78.39
36138;BME280;67787;50.074;21.904;2023-04-07T02:07:23;98756.93;;;0.41;78.42
36138;BME280;67787;50.074;21.904;2023-04-07T02:09:59;98758.70;;;0.40;78.56
36138;BME280;67787;50.074;21.904;2023-04-07T02:12:30;98762.20;;;0.40;78.36
36138;BME280;67787;50.074;21.904;2023-04-07T02:15:00;98762.02;;;0.40;78.57
36138;BME280;67787;50.074;21.904;2023-04-07T02:17:31;98759.05;;;0.40;78.16
36138;BME280;67787;50.074;21.904;2023-04-07T02:20:02;98760.05;;;0.41;78.34
36138;BME280;67787;50.074;21.904;2023-04-07T02:22:32;98759.73;;;0.40;78.15
36138;BME280;67787;50.074;21.904;2023-04-07T02:25:00;98756.45;;;0.39;78.15
36138;BME280;67787;50.074;21.904;2023-04-07T02:27:28;98754.88;;;0.40;78.41
36138;BME280;67787;50.074;21.904;2023-04-07T02:29:56;98755.11;;;0.38;78.29
36138;BME280;67787;50.074;21.904;2023-04-07T02:32:24;98749.69;;;0.38;78.94
36138;BME280;67787;50.074;21.904;2023-04-07T02:34:52;98746.10;;;0.36;79.18
36138;BME280;67787;50.074;21.904;2023-04-07T02:37:20;98747.86;;;0.36;78.73
36138;BME280;67787;50.074;21.904;2023-04-07T02:39:47;98741.95;;;0.35;78.63
36138;BME280;67787;50.074;21.904;2023-04-07T02:42:15;98744.92;;;0.35;78.72
36138;BME280;67787;50.074;21.904;2023-04-07T02:44:44;98744.61;;;0.34;78.49
36138;BME280;67787;50.074;21.904;2023-04-07T02:47:12;98743.93;;;0.34;79.12
36138;BME280;67787;50.074;21.904;2023-04-07T02:49:40;98740.30;;;0.33;78.71
36138;BME280;67787;50.074;21.904;2023-04-07T02:52:08;98738.89;;;0.33;78.57
36138;BME280;67787;50.074;21.904;2023-04-07T02:54:35;98735.93;;;0.33;78.74
36138;BME280;67787;50.074;21.904;2023-04-07T02:57:04;98731.60;;;0.32;79.03
36138;BME280;67787;50.074;21.904;2023-04-07T02:59:32;98728.34;;;0.30;79.03
36138;BME280;67787;50.074;21.904;2023-04-07T03:02:00;98730.23;;;0.32;78.62
36138;BME280;67787;50.074;21.904;2023-04-07T03:04:28;98729.55;;;0.31;78.70
36138;BME280;67787;50.074;21.904;2023-04-07T03:06:56;98727.65;;;0.31;78.61
36138;BME280;67787;50.074;21.904;2023-04-07T03:09:24;98735.30;;;0.31;79.07
36138;BME280;67787;50.074;21.904;2023-04-07T03:11:53;98734.08;;;0.31;78.76
36138;BME280;67787;50.074;21.904;2023-04-07T03:14:21;98736.00;;;0.31;78.87
36138;BME280;67787;50.074;21.904;2023-04-07T03:16:49;98743.70;;;0.30;79.11
36138;BME280;67787;50.074;21.904;2023-04-07T03:19:17;98742.33;;;0.29;79.04
36138;BME280;67787;50.074;21.904;2023-04-07T03:21:45;98741.93;;;0.31;78.70
36138;BME280;67787;50.074;21.904;2023-04-07T03:24:13;98735.80;;;0.32;78.74
36138;BME280;67787;50.074;21.904;2023-04-07T03:26:40;98741.00;;;0.33;79.24
36138;BME280;67787;50.074;21.904;2023-04-07T03:29:08;98744.34;;;0.32;78.64
36138;BME280;67787;50.074;21.904;2023-04-07T03:31:36;98744.84;;;0.33;78.42
36138;BME280;67787;50.074;21.904;2023-04-07T03:34:04;98745.33;;;0.34;78.79
36138;BME280;67787;50.074;21.904;2023-04-07T03:36:32;98746.52;;;0.34;78.62
36138;BME280;67787;50.074;21.904;2023-04-07T03:39:00;98751.69;;;0.36;78.40
36138;BME280;67787;50.074;21.904;2023-04-07T03:41:28;98758.80;;;0.37;78.15
36138;BME280;67787;50.074;21.904;2023-04-07T03:43:56;98755.25;;;0.39;78.56
36138;BME280;67787;50.074;21.904;2023-04-07T03:46:24;98756.23;;;0.40;78.17
36138;BME280;67787;50.074;21.904;2023-04-07T03:48:54;98763.84;;;0.42;78.22
36138;BME280;67787;50.074;21.904;2023-04-07T03:51:22;98763.14;;;0.42;78.09
36138;BME280;67787;50.074;21.904;2023-04-07T03:53:50;98762.91;;;0.44;77.92
36138;BME280;67787;50.074;21.904;2023-04-07T03:56:18;98769.98;;;0.47;77.81
36138;BME280;67787;50.074;21.904;2023-04-07T03:58:47;98767.84;;;0.48;78.11
36138;BME280;67787;50.074;21.904;2023-04-07T04:01:15;98765.73;;;0.48;78.19
36138;BME280;67787;50.074;21.904;2023-04-07T04:03:43;98762.79;;;0.48;78.70
36138;BME280;67787;50.074;21.904;2023-04-07T04:06:11;98759.38;;;0.45;78.15
36138;BME280;67787;50.074;21.904;2023-04-07T04:08:39;98761.12;;;0.45;78.05
36138;BME280;67787;50.074;21.904;2023-04-07T04:11:07;98766.15;;;0.46;78.26
36138;BME280;67787;50.074;21.904;2023-04-07T04:13:35;98764.57;;;0.47;78.27
36138;BME280;67787;50.074;21.904;2023-04-07T04:16:03;98763.63;;;0.48;78.18
36138;BME280;67787;50.074;21.904;2023-04-07T04:18:31;98760.15;;;0.48;78.82
36138;BME280;67787;50.074;21.904;2023-04-07T04:20:59;98758.23;;;0.48;78.38
36138;BME280;67787;50.074;21.904;2023-04-07T04:23:28;98762.73;;;0.49;78.68
36138;BME280;67787;50.074;21.904;2023-04-07T04:25:55;98764.44;;;0.50;78.22
36138;BME280;67787;50.074;21.904;2023-04-07T04:28:24;98765.28;;;0.51;78.13
36138;BME280;67787;50.074;21.904;2023-04-07T04:30:52;98769.91;;;0.53;77.70
36138;BME280;67787;50.074;21.904;2023-04-07T04:33:20;98774.05;;;0.54;78.25
36138;BME280;67787;50.074;21.904;2023-04-07T04:35:48;98777.88;;;0.55;78.23
36138;BME280;67787;50.074;21.904;2023-04-07T04:38:16;98783.08;;;0.56;78.25
36138;BME280;67787;50.074;21.904;2023-04-07T04:40:44;98783.00;;;0.58;77.96
36138;BME280;67787;50.074;21.904;2023-04-07T04:43:12;98786.80;;;0.59;78.14
36138;BME280;67787;50.074;21.904;2023-04-07T04:45:40;98789.61;;;0.58;78.05
36138;BME280;67787;50.074;21.904;2023-04-07T04:48:08;98789.64;;;0.58;78.35
36138;BME280;67787;50.074;21.904;2023-04-07T04:50:37;98787.66;;;0.59;78.41
36138;BME280;67787;50.074;21.904;2023-04-07T04:53:05;98782.04;;;0.61;78.26
36138;BME280;67787;50.074;21.904;2023-04-07T04:55:33;98778.61;;;0.63;78.25
36138;BME280;67787;50.074;21.904;2023-04-07T04:58:01;98773.48;;;0.65;78.42
36138;BME280;67787;50.074;21.904;2023-04-07T05:00:29;98771.83;;;0.68;78.50
36138;BME280;67787;50.074;21.904;2023-04-07T05:02:57;98770.59;;;0.73;78.30
36138;BME280;67787;50.074;21.904;2023-04-07T05:05:25;98773.02;;;0.78;78.67
36138;BME280;67787;50.074;21.904;2023-04-07T05:07:53;98773.79;;;0.81;78.93
36138;BME280;67787;50.074;21.904;2023-04-07T05:10:21;98772.15;;;0.82;78.50
36138;BME280;67787;50.074;21.904;2023-04-07T05:12:49;98781.91;;;0.88;78.25
36138;BME280;67787;50.074;21.904;2023-04-07T05:15:17;98782.48;;;0.96;78.19
36138;BME280;67787;50.074;21.904;2023-04-07T05:17:45;98782.99;;;1.01;78.09
36138;BME280;67787;50.074;21.904;2023-04-07T05:20:17;98782.48;;;1.05;78.08
36138;BME280;67787;50.074;21.904;2023-04-07T05:22:45;98787.61;;;1.08;78.03
36138;BME280;67787;50.074;21.904;2023-04-07T05:25:13;98792.82;;;1.09;78.06
36138;BME280;67787;50.074;21.904;2023-04-07T05:27:41;98791.48;;;1.11;77.95
36138;BME280;67787;50.074;21.904;2023-04-07T05:30:09;98789.33;;;1.13;78.03
36138;BME280;67787;50.074;21.904;2023-04-07T05:32:37;98786.80;;;1.15;78.09
36138;BME280;67787;50.074;21.904;2023-04-07T05:35:05;98785.41;;;1.15;78.35
36138;BME280;67787;50.074;21.904;2023-04-07T05:37:33;98784.23;;;1.14;78.18
36138;BME280;67787;50.074;21.904;2023-04-07T05:40:01;98783.50;;;1.15;78.37
36138;BME280;67787;50.074;21.904;2023-04-07T05:42:29;98784.76;;;1.14;78.69
36138;BME280;67787;50.074;21.904;2023-04-07T05:44:57;98786.83;;;1.15;78.16
36138;BME280;67787;50.074;21.904;2023-04-07T05:47:25;98787.24;;;1.18;78.44
36138;BME280;67787;50.074;21.904;2023-04-07T05:49:53;98791.70;;;1.20;78.38
36138;BME280;67787;50.074;21.904;2023-04-07T05:52:21;98799.83;;;1.22;78.25
36138;BME280;67787;50.074;21.904;2023-04-07T05:54:50;98804.90;;;1.22;78.10
36138;BME280;67787;50.074;21.904;2023-04-07T05:57:17;98809.32;;;1.25;78.22
36138;BME280;67787;50.074;21.904;2023-04-07T05:59:45;98809.96;;;1.27;78.29
36138;BME280;67787;50.074;21.904;2023-04-07T06:02:13;98805.73;;;1.27;78.27
36138;BME280;67787;50.074;21.904;2023-04-07T06:04:42;98801.55;;;1.32;78.19
36138;BME280;67787;50.074;21.904;2023-04-07T06:07:09;98799.77;;;1.37;78.17
36138;BME280;67787;50.074;21.904;2023-04-07T06:09:38;98793.75;;;1.44;78.33
36138;BME280;67787;50.074;21.904;2023-04-07T06:12:06;98796.63;;;1.50;78.09
36138;BME280;67787;50.074;21.904;2023-04-07T06:14:34;98802.02;;;1.55;78.20
36138;BME280;67787;50.074;21.904;2023-04-07T06:17:01;98802.48;;;1.57;77.95
36138;BME280;67787;50.074;21.904;2023-04-07T06:19:30;98801.31;;;1.60;77.76
36138;BME280;67787;50.074;21.904;2023-04-07T06:21:57;98798.64;;;1.65;78.06
36138;BME280;67787;50.074;21.904;2023-04-07T06:24:25;98792.33;;;1.75;77.86
36138;BME280;67787;50.074;21.904;2023-04-07T06:26:54;98791.81;;;1.83;78.30
36138;BME280;67787;50.074;21.904;2023-04-07T06:29:23;98794.11;;;1.87;78.04
36138;BME280;67787;50.074;21.904;2023-04-07T06:31:51;98790.59;;;1.88;78.00
36138;BME280;67787;50.074;21.904;2023-04-07T06:34:19;98790.59;;;1.87;77.82
36138;BME280;67787;50.074;21.904;2023-04-07T06:36:47;98791.27;;;1.88;77.96
36138;BME280;67787;50.074;21.904;2023-04-07T06:39:15;98797.10;;;1.90;77.84
36138;BME280;67787;50.074;21.904;2023-04-07T06:41:43;98801.31;;;1.95;77.90
36138;BME280;67787;50.074;21.904;2023-04-07T06:44:11;98804.67;;;1.98;77.87
36138;BME280;67787;50.074;21.904;2023-04-07T06:46:39;98806.45;;;1.98;77.80
36138;BME280;67787;50.074;21.904;2023-04-07T06:49:08;98807.85;;;1.93;78.12
36138;BME280;67787;50.074;21.904;2023-04-07T06:51:36;98809.31;;;1.87;77.73
36138;BME280;67787;50.074;21.904;2023-04-07T06:54:04;98803.45;;;1.85;77.74
36138;BME280;67787;50.074;21.904;2023-04-07T06:56:34;98810.55;;;1.86;77.86
36138;BME280;67787;50.074;21.904;2023-04-07T06:59:02;98815.99;;;1.82;77.78
36138;BME280;67787;50.074;21.904;2023-04-07T07:01:30;98820.16;;;1.74;77.94
36138;BME280;67787;50.074;21.904;2023-04-07T07:03:59;98828.47;;;1.67;77.66
36138;BME280;67787;50.074;21.904;2023-04-07T07:06:28;98831.96;;;1.63;78.07
36138;BME280;67787;50.074;21.904;2023-04-07T07:08:56;98826.76;;;1.62;78.14
36138;BME280;67787;50.074;21.904;2023-04-07T07:11:24;98826.81;;;1.65;78.10
36138;BME280;67787;50.074;21.904;2023-04-07T07:13:52;98826.63;;;1.70;78.08
36138;BME280;67787;50.074;21.904;2023-04-07T07:16:20;98830.01;;;1.73;78.13
36138;BME280;67787;50.074;21.904;2023-04-07T07:18:50;98831.06;;;1.77;78.08
36138;BME280;67787;50.074;21.904;2023-04-07T07:21:18;98835.13;;;1.80;77.92
36138;BME280;67787;50.074;21.904;2023-04-07T07:23:46;98827.82;;;1.88;78.11
36138;BME280;67787;50.074;21.904;2023-04-07T07:26:15;98819.44;;;1.96;78.19
36138;BME280;67787;50.074;21.904;2023-04-07T07:28:43;98815.61;;;2.08;78.27
36138;BME280;67787;50.074;21.904;2023-04-07T07:31:11;98813.95;;;2.18;78.15
36138;BME280;67787;50.074;21.904;2023-04-07T07:33:40;98801.00;;;2.27;78.06
36138;BME280;67787;50.074;21.904;2023-04-07T07:36:11;98795.47;;;2.38;77.98
36138;BME280;67787;50.074;21.904;2023-04-07T07:38:39;98798.70;;;2.52;78.10
36138;BME280;67787;50.074;21.904;2023-04-07T07:41:07;98803.35;;;2.62;77.96
36138;BME280;67787;50.074;21.904;2023-04-07T07:43:35;98806.86;;;2.73;77.95
36138;BME280;67787;50.074;21.904;2023-04-07T07:46:04;98809.27;;;2.82;77.82
36138;BME280;67787;50.074;21.904;2023-04-07T07:48:32;98808.05;;;2.86;77.88
36138;BME280;67787;50.074;21.904;2023-04-07T07:51:00;98816.95;;;2.91;77.81
36138;BME280;67787;50.074;21.904;2023-04-07T07:53:28;98819.05;;;2.91;77.61
36138;BME280;67787;50.074;21.904;2023-04-07T07:55:56;98825.71;;;2.91;77.74
36138;BME280;67787;50.074;21.904;2023-04-07T07:58:24;98828.06;;;2.89;77.61
36138;BME280;67787;50.074;21.904;2023-04-07T08:00:52;98834.89;;;2.77;77.57
36138;BME280;67787;50.074;21.904;2023-04-07T08:03:20;98835.64;;;2.72;77.76
36138;BME280;67787;50.074;21.904;2023-04-07T08:05:49;98839.69;;;2.72;77.70
36138;BME280;67787;50.074;21.904;2023-04-07T08:08:17;98837.15;;;2.70;77.74
36138;BME280;67787;50.074;21.904;2023-04-07T08:10:45;98834.98;;;2.71;77.90
36138;BME280;67787;50.074;21.904;2023-04-07T08:13:13;98842.96;;;2.73;77.72
36138;BME280;67787;50.074;21.904;2023-04-07T08:15:41;98848.23;;;2.73;77.69
36138;BME280;67787;50.074;21.904;2023-04-07T08:18:09;98854.52;;;2.69;77.74
36138;BME280;67787;50.074;21.904;2023-04-07T08:20:36;98855.02;;;2.61;77.58
36138;BME280;67787;50.074;21.904;2023-04-07T08:23:05;98858.25;;;2.60;77.81
36138;BME280;67787;50.074;21.904;2023-04-07T08:25:33;98855.94;;;2.61;77.61
36138;BME280;67787;50.074;21.904;2023-04-07T08:28:02;98856.46;;;2.60;77.81
36138;BME280;67787;50.074;21.904;2023-04-07T08:30:30;98860.77;;;2.62;77.78
36138;BME280;67787;50.074;21.904;2023-04-07T08:33:07;98864.59;;;2.59;77.72
36138;BME280;67787;50.074;21.904;2023-04-07T08:35:35;98866.40;;;2.57;77.64
36138;BME280;67787;50.074;21.904;2023-04-07T08:38:03;98866.20;;;2.58;77.66
36138;BME280;67787;50.074;21.904;2023-04-07T08:40:32;98872.75;;;2.60;77.73
36138;BME280;67787;50.074;21.904;2023-04-07T08:43:03;98876.90;;;2.57;77.71
36138;BME280;67787;50.074;21.904;2023-04-07T08:45:39;98871.23;;;2.50;77.78
36138;BME280;67787;50.074;21.904;2023-04-07T08:48:27;98868.23;;;2.51;77.94
36138;BME280;67787;50.074;21.904;2023-04-07T08:51:05;98866.66;;;2.59;77.90
36138;BME280;67787;50.074;21.904;2023-04-07T08:53:40;98866.39;;;2.66;77.97
36138;BME280;67787;50.074;21.904;2023-04-07T08:56:13;98867.17;;;2.72;77.90
36138;BME280;67787;50.074;21.904;2023-04-07T08:58:43;98867.05;;;2.79;77.76
36138;BME280;67787;50.074;21.904;2023-04-07T09:01:12;98867.91;;;2.91;77.87
36138;BME280;67787;50.074;21.904;2023-04-07T09:03:41;98868.45;;;2.94;77.73
36138;BME280;67787;50.074;21.904;2023-04-07T09:06:11;98871.88;;;2.92;77.84
36138;BME280;67787;50.074;21.904;2023-04-07T09:08:39;98873.12;;;2.92;77.77
36138;BME280;67787;50.074;21.904;2023-04-07T09:11:07;98871.82;;;2.94;77.72
36138;BME280;67787;50.074;21.904;2023-04-07T09:13:35;98871.70;;;2.96;77.75
36138;BME280;67787;50.074;21.904;2023-04-07T09:16:03;98872.64;;;3.03;77.78
36138;BME280;67787;50.074;21.904;2023-04-07T09:18:32;98872.61;;;3.08;77.60
36138;BME280;67787;50.074;21.904;2023-04-07T09:21:02;98870.92;;;3.06;77.57
36138;BME280;67787;50.074;21.904;2023-04-07T09:23:33;98874.23;;;3.10;77.72
36138;BME280;67787;50.074;21.904;2023-04-07T09:28:46;98874.77;;;3.26;77.92
36138;BME280;67787;50.074;21.904;2023-04-07T09:31:15;98873.08;;;3.28;77.76
36138;BME280;67787;50.074;21.904;2023-04-07T09:33:43;98877.39;;;3.22;77.52
36138;BME280;67787;50.074;21.904;2023-04-07T09:36:10;98880.73;;;3.22;77.67
36138;BME280;67787;50.074;21.904;2023-04-07T09:38:40;98877.86;;;3.27;77.68
36138;BME280;67787;50.074;21.904;2023-04-07T09:43:42;98875.64;;;3.34;77.71
36138;BME280;67787;50.074;21.904;2023-04-07T09:46:16;98872.39;;;3.40;77.63
36138;BME280;67787;50.074;21.904;2023-04-07T09:48:45;98874.63;;;3.44;77.66
36138;BME280;67787;50.074;21.904;2023-04-07T09:51:15;98880.94;;;3.48;77.69
36138;BME280;67787;50.074;21.904;2023-04-07T09:53:48;98882.55;;;3.47;77.47
36138;BME280;67787;50.074;21.904;2023-04-07T09:56:18;98883.77;;;3.44;77.53
36138;BME280;67787;50.074;21.904;2023-04-07T09:58:49;98882.86;;;3.40;77.78
36138;BME280;67787;50.074;21.904;2023-04-07T10:01:21;98887.67;;;3.39;77.57
36138;BME280;67787;50.074;21.904;2023-04-07T10:03:48;98890.66;;;3.35;77.65
36138;BME280;67787;50.074;21.904;2023-04-07T10:06:19;98893.68;;;3.42;77.99
36138;BME280;67787;50.074;21.904;2023-04-07T10:08:47;98886.79;;;3.43;77.72
36138;BME280;67787;50.074;21.904;2023-04-07T10:11:16;98885.51;;;3.44;77.57
36138;BME280;67787;50.074;21.904;2023-04-07T10:13:44;98886.21;;;3.40;77.42
36138;BME280;67787;50.074;21.904;2023-04-07T10:16:13;98885.40;;;3.39;77.54
36138;BME280;67787;50.074;21.904;2023-04-07T10:18:43;98890.52;;;3.34;77.50
36138;BME280;67787;50.074;21.904;2023-04-07T10:21:11;98895.31;;;3.29;77.44
36138;BME280;67787;50.074;21.904;2023-04-07T10:24:06;98898.63;;;3.25;77.55
36138;BME280;67787;50.074;21.904;2023-04-07T10:26:42;98898.52;;;3.20;77.46
36138;BME280;67787;50.074;21.904;2023-04-07T10:29:12;98893.64;;;3.19;77.38
36138;BME280;67787;50.074;21.904;2023-04-07T10:31:42;98892.27;;;3.19;77.51
36138;BME280;67787;50.074;21.904;2023-04-07T10:34:10;98893.98;;;3.27;77.60
36138;BME280;67787;50.074;21.904;2023-04-07T10:37:07;98896.56;;;3.28;77.43
36138;BME280;67787;50.074;21.904;2023-04-07T10:39:37;98904.16;;;3.27;77.54
36138;BME280;67787;50.074;21.904;2023-04-07T10:45:07;98915.67;;;3.24;77.62
36138;BME280;67787;50.074;21.904;2023-04-07T10:50:30;98921.47;;;3.20;77.42
36138;BME280;67787;50.074;21.904;2023-04-07T10:53:10;98927.52;;;3.10;77.45
36138;BME280;67787;50.074;21.904;2023-04-07T10:55:43;98930.77;;;3.08;77.45
36138;BME280;67787;50.074;21.904;2023-04-07T11:00:42;98939.04;;;3.07;77.49
36138;BME280;67787;50.074;21.904;2023-04-07T11:03:10;98940.91;;;3.08;77.45
36138;BME280;67787;50.074;21.904;2023-04-07T11:05:42;98937.67;;;3.14;77.64
36138;BME280;67787;50.074;21.904;2023-04-07T11:08:10;98943.89;;;3.21;77.72
36138;BME280;67787;50.074;21.904;2023-04-07T11:10:38;98944.58;;;3.28;77.65
36138;BME280;67787;50.074;21.904;2023-04-07T11:13:07;98946.27;;;3.38;77.80
36138;BME280;67787;50.074;21.904;2023-04-07T11:15:36;98944.05;;;3.48;77.71
36138;BME280;67787;50.074;21.904;2023-04-07T11:18:20;98945.30;;;3.59;77.70
36138;BME280;67787;50.074;21.904;2023-04-07T11:21:09;98946.99;;;3.65;77.54
36138;BME280;67787;50.074;21.904;2023-04-07T11:23:43;98942.36;;;3.70;77.63
36138;BME280;67787;50.074;21.904;2023-04-07T11:26:13;98941.42;;;3.83;77.76
36138;BME280;67787;50.074;21.904;2023-04-07T11:28:47;98943.18;;;3.94;77.66
36138;BME280;67787;50.074;21.904;2023-04-07T11:31:28;98947.27;;;4.04;77.40
36138;BME280;67787;50.074;21.904;2023-04-07T11:34:03;98947.56;;;4.12;77.63
36138;BME280;67787;50.074;21.904;2023-04-07T11:36:33;98947.84;;;4.22;77.89
36138;BME280;67787;50.074;21.904;2023-04-07T11:39:02;98950.25;;;4.29;77.63
36138;BME280;67787;50.074;21.904;2023-04-07T11:41:32;98957.65;;;4.36;77.53
36138;BME280;67787;50.074;21.904;2023-04-07T11:44:08;98958.23;;;4.39;77.56
36138;BME280;67787;50.074;21.904;2023-04-07T11:46:54;98960.18;;;4.42;77.39
36138;BME280;67787;50.074;21.904;2023-04-07T11:49:23;98960.80;;;4.44;77.69
36138;BME280;67787;50.074;21.904;2023-04-07T11:52:03;98958.71;;;4.54;77.67
36138;BME280;67787;50.074;21.904;2023-04-07T11:54:44;98965.66;;;4.60;77.67
36138;BME280;67787;50.074;21.904;2023-04-07T11:57:25;98965.04;;;4.58;77.71
36138;BME280;67787;50.074;21.904;2023-04-07T12:00:11;98969.18;;;4.59;77.82
36138;BME280;67787;50.074;21.904;2023-04-07T12:02:40;98969.23;;;4.58;77.42
36138;BME280;67787;50.074;21.904;2023-04-07T12:05:09;98970.49;;;4.54;77.43
36138;BME280;67787;50.074;21.904;2023-04-07T12:07:38;98970.86;;;4.50;77.45
36138;BME280;67787;50.074;21.904;2023-04-07T12:10:21;98970.13;;;4.51;77.56
36138;BME280;67787;50.074;21.904;2023-04-07T12:12:49;98971.39;;;4.61;77.37
36138;BME280;67787;50.074;21.904;2023-04-07T12:15:19;98970.50;;;4.75;77.62
36138;BME280;67787;50.074;21.904;2023-04-07T12:17:48;98971.06;;;4.85;77.60
36138;BME280;67787;50.074;21.904;2023-04-07T12:20:16;98978.05;;;4.93;77.43
36138;BME280;67787;50.074;21.904;2023-04-07T12:22:44;98982.72;;;4.98;77.47
36138;BME280;67787;50.074;21.904;2023-04-07T12:25:12;98987.54;;;5.10;77.74
36138;BME280;67787;50.074;21.904;2023-04-07T12:27:41;98985.73;;;5.18;77.57
36138;BME280;67787;50.074;21.904;2023-04-07T12:30:11;98987.92;;;5.16;77.32
36138;BME280;67787;50.074;21.904;2023-04-07T12:32:40;98989.48;;;5.10;77.12
36138;BME280;67787;50.074;21.904;2023-04-07T12:35:08;98991.97;;;5.02;77.18
36138;BME280;67787;50.074;21.904;2023-04-07T12:37:36;98993.99;;;4.97;77.21
36138;BME280;67787;50.074;21.904;2023-04-07T12:40:04;98996.13;;;4.97;77.16
36138;BME280;67787;50.074;21.904;2023-04-07T12:42:33;98998.27;;;5.00;77.29
36138;BME280;67787;50.074;21.904;2023-04-07T12:45:00;98998.70;;;5.05;77.20
36138;BME280;67787;50.074;21.904;2023-04-07T12:47:32;99002.60;;;5.08;77.29
36138;BME280;67787;50.074;21.904;2023-04-07T12:50:01;99005.71;;;5.06;77.05
36138;BME280;67787;50.074;21.904;2023-04-07T12:52:29;99002.55;;;4.98;77.13
36138;BME280;67787;50.074;21.904;2023-04-07T12:54:57;99008.29;;;5.00;77.12
36138;BME280;67787;50.074;21.904;2023-04-07T12:57:28;99009.69;;;5.07;77.44
36138;BME280;67787;50.074;21.904;2023-04-07T12:59:56;99011.24;;;5.11;77.28
36138;BME280;67787;50.074;21.904;2023-04-07T13:02:27;99009.48;;;5.14;77.28
36138;BME280;67787;50.074;21.904;2023-04-07T13:04:55;99013.65;;;5.22;77.31
36138;BME280;67787;50.074;21.904;2023-04-07T13:07:23;99012.94;;;5.29;77.35
36138;BME280;67787;50.074;21.904;2023-04-07T13:09:54;99010.64;;;5.43;77.55
36138;BME280;67787;50.074;21.904;2023-04-07T13:12:33;99011.33;;;5.57;77.35
36138;BME280;67787;50.074;21.904;2023-04-07T13:15:01;99015.48;;;5.61;77.44
36138;BME280;67787;50.074;21.904;2023-04-07T13:17:29;99015.77;;;5.59;77.37
36138;BME280;67787;50.074;21.904;2023-04-07T13:19:57;99020.11;;;5.51;77.25
36138;BME280;67787;50.074;21.904;2023-04-07T13:22:25;99023.25;;;5.41;77.02
36138;BME280;67787;50.074;21.904;2023-04-07T13:24:54;99027.08;;;5.28;76.97
36138;BME280;67787;50.074;21.904;2023-04-07T13:27:22;99025.77;;;5.15;76.98
36138;BME280;67787;50.074;21.904;2023-04-07T13:29:50;99032.23;;;5.10;77.09
36138;BME280;67787;50.074;21.904;2023-04-07T13:32:18;99030.50;;;5.05;76.97